createdAt,value
2023-11-06T00:01:21.222Z,18.45
2023-11-06T00:03:51.864Z,15.43
2023-11-06T00:06:21.106Z,17.25
2023-11-06T00:08:51.654Z,16.08
2023-11-06T00:11:20.979Z,13.13
2023-11-06T00:13:50.213Z,19.90
2023-11-06T00:16:26.649Z,14.90
2023-11-06T00:18:58.662Z,14.20
2023-11-06T00:21:28.923Z,14.05
2023-11-06T00:23:59.671Z,15.95
2023-11-06T00:26:29.618Z,17.65
2023-11-06T00:28:59.267Z,17.33
2023-11-06T00:31:28.735Z,14.98
2023-11-06T00:33:58.255Z,11.60
2023-11-06T00:36:27.485Z,14.85
2023-11-06T00:38:56.630Z,11.70
2023-11-06T00:41:27.268Z,19.17
2023-11-06T00:43:57.009Z,13.10
2023-11-06T00:46:26.374Z,16.92
2023-11-06T00:48:55.607Z,18.65
2023-11-06T00:51:24.808Z,14.77
2023-11-06T00:53:54.027Z,18.52
2023-11-06T00:56:23.337Z,10.68
2023-11-06T00:58:54.177Z,12.65
2023-11-06T01:01:23.490Z,12.55
2023-11-06T01:03:53.348Z,13.38
2023-11-06T01:06:23.178Z,16.17
2023-11-06T01:08:52.351Z,11.07
2023-11-06T01:11:21.633Z,14.90
2023-11-06T01:13:51.212Z,11.25
2023-11-06T01:16:21.992Z,9.88
2023-11-06T01:18:51.342Z,18.48
2023-11-06T01:21:20.848Z,15.48
2023-11-06T01:23:50.028Z,7.88
2023-11-06T01:26:19.327Z,14.13
2023-11-06T01:28:48.561Z,15.60
2023-11-06T01:31:18.739Z,13.38
2023-11-06T01:33:49.357Z,10.90
2023-11-06T01:36:20.556Z,11.98
2023-11-06T01:38:49.788Z,13.27
2023-11-06T01:41:19.156Z,10.85
2023-11-06T01:43:48.565Z,8.77
2023-11-06T01:46:18.005Z,16.17
2023-11-06T01:48:49.074Z,10.93
2023-11-06T01:51:19.057Z,9.35
2023-11-06T01:53:49.287Z,13.75
2023-11-06T01:56:19.642Z,15.93
2023-11-06T01:58:49.897Z,14.02
2023-11-06T02:01:20.475Z,15.48
2023-11-06T02:03:51.568Z,9.55
2023-11-06T02:06:21.304Z,11.57
2023-11-06T02:08:50.502Z,15.98
2023-11-06T02:11:19.859Z,14.57
2023-11-06T02:13:49.010Z,16.08
2023-11-06T02:16:18.344Z,11.13
2023-11-06T02:18:47.612Z,10.38
2023-11-06T02:21:18.264Z,17.25
2023-11-06T02:23:50.447Z,18.02
2023-11-06T02:26:19.756Z,14.95
2023-11-06T02:28:53.899Z,18.20
2023-11-06T02:31:23.248Z,13.55
2023-11-06T02:33:52.537Z,13.02
2023-11-06T02:36:21.841Z,14.75
2023-11-06T02:38:52.508Z,11.55
2023-11-06T02:41:21.781Z,11.63
2023-11-06T02:43:51.055Z,11.65
2023-11-06T02:46:20.225Z,9.88
2023-11-06T02:48:49.502Z,10.57
2023-11-06T02:51:19.228Z,13.65
2023-11-06T02:53:49.325Z,13.55
2023-11-06T02:56:20.449Z,8.73
2023-11-06T02:58:49.797Z,12.20
2023-11-06T03:01:20.476Z,10.82
2023-11-06T03:03:50.019Z,17.42
2023-11-06T03:06:19.230Z,12.23
2023-11-06T03:08:48.388Z,12.30
2023-11-06T03:11:18.119Z,15.65
2023-11-06T03:13:49.089Z,13.98
2023-11-06T03:16:18.475Z,12.50
2023-11-06T03:18:47.710Z,9.27
2023-11-06T03:21:17.073Z,10.30
2023-11-06T03:23:46.812Z,9.32
2023-11-06T03:26:16.710Z,13.43
2023-11-06T03:28:47.454Z,16.10
2023-11-06T03:31:17.044Z,12.55
2023-11-06T03:33:46.445Z,9.73
2023-11-06T03:36:15.728Z,13.45
2023-11-06T03:38:44.913Z,12.07
2023-11-06T03:41:14.315Z,12.63
2023-11-06T03:43:44.159Z,15.15
2023-11-06T03:46:15.603Z,8.63
2023-11-06T03:48:44.814Z,9.05
2023-11-06T03:51:14.007Z,9.15
2023-11-06T03:53:43.382Z,10.65
2023-11-06T03:56:12.557Z,8.25
2023-11-06T03:58:41.885Z,9.93
2023-11-06T04:01:11.192Z,5.80
2023-11-06T04:03:42.228Z,11.23
2023-11-06T04:06:11.534Z,7.28
2023-11-06T04:08:40.707Z,9.30
2023-11-06T04:11:10.402Z,10.68
2023-11-06T04:13:40.878Z,11.57
2023-11-06T04:16:10.485Z,14.27
2023-11-06T04:18:41.372Z,11.40
2023-11-06T04:21:10.634Z,10.48
2023-11-06T04:23:39.740Z,8.80
2023-11-06T04:26:09.192Z,10.77
2023-11-06T04:28:38.343Z,8.57
2023-11-06T04:31:07.497Z,9.77
2023-11-06T04:33:36.769Z,14.93
2023-11-06T04:36:10.332Z,10.20
2023-11-06T04:38:39.581Z,10.55
2023-11-06T04:41:10.262Z,7.40
2023-11-06T04:43:39.474Z,7.68
2023-11-06T04:46:08.894Z,13.43
2023-11-06T04:48:38.044Z,9.90
2023-11-06T04:51:09.565Z,16.63
2023-11-06T04:53:40.136Z,15.10
2023-11-06T04:56:10.989Z,25.75
2023-11-06T04:58:40.239Z,10.10
2023-11-06T05:01:09.879Z,11.98
2023-11-06T05:03:40.403Z,13.82
2023-11-06T05:06:11.620Z,13.27
2023-11-06T05:08:40.990Z,15.95
2023-11-06T05:11:10.257Z,10.23
2023-11-06T05:13:39.513Z,14.75
2023-11-06T05:16:11.186Z,12.95
2023-11-06T05:18:40.574Z,12.63
2023-11-06T05:21:11.292Z,16.73
2023-11-06T05:23:42.611Z,16.17
2023-11-06T05:26:11.872Z,13.10
2023-11-06T05:28:41.455Z,12.32
2023-11-06T05:31:10.926Z,16.00
2023-11-06T05:33:40.744Z,9.38
2023-11-06T05:36:15.274Z,16.58
2023-11-06T05:38:45.822Z,12.95
2023-11-06T05:41:15.789Z,12.40
2023-11-06T05:43:45.391Z,15.35
2023-11-06T05:46:14.594Z,9.50
2023-11-06T05:48:43.827Z,11.73
2023-11-06T05:51:14.586Z,15.20
2023-11-06T05:53:44.002Z,19.73
2023-11-06T05:56:13.159Z,14.40
2023-11-06T05:58:42.354Z,19.23
2023-11-06T06:01:11.650Z,19.05
2023-11-06T06:03:41.346Z,15.57
2023-11-06T06:06:11.280Z,22.33
2023-11-06T06:08:42.012Z,17.05
2023-11-06T06:11:11.380Z,13.80
2023-11-06T06:13:40.560Z,17.60
2023-11-06T06:16:10.620Z,18.20
2023-11-06T06:18:39.828Z,18.45
2023-11-06T06:21:09.230Z,23.08
2023-11-06T06:23:39.731Z,19.42
2023-11-06T06:26:10.477Z,14.68
2023-11-06T06:28:39.969Z,22.48
2023-11-06T06:31:09.165Z,27.13
2023-11-06T06:33:38.458Z,20.15
2023-11-06T06:36:13.133Z,14.95
2023-11-06T06:38:42.440Z,22.65
2023-11-06T06:41:13.049Z,15.45
2023-11-06T06:43:42.267Z,20.75
2023-11-06T06:46:11.798Z,24.08
2023-11-06T06:48:41.646Z,19.33
2023-11-06T06:51:10.987Z,18.42
2023-11-06T06:53:40.351Z,14.02
2023-11-06T06:56:10.477Z,21.92
2023-11-06T06:58:41.173Z,20.50
2023-11-06T07:01:11.218Z,16.80
2023-11-06T07:03:41.087Z,24.08
2023-11-06T07:06:11.997Z,27.73
2023-11-06T07:08:41.445Z,16.83
2023-11-06T07:11:10.632Z,21.10
2023-11-06T07:13:41.269Z,20.27
2023-11-06T07:16:14.531Z,21.88
2023-11-06T07:18:43.684Z,23.58
2023-11-06T07:21:12.851Z,23.58
2023-11-06T07:23:42.117Z,28.52
2023-11-06T07:26:11.797Z,17.65
2023-11-06T07:28:42.462Z,20.05
2023-11-06T07:31:11.661Z,18.60
2023-11-06T07:33:40.893Z,24.05
2023-11-06T07:36:12.627Z,24.92
2023-11-06T07:38:41.881Z,20.88
2023-11-06T07:41:13.751Z,16.70
2023-11-06T07:43:47.266Z,20.70
2023-11-06T07:46:20.513Z,28.48
2023-11-06T07:48:50.622Z,18.02
2023-11-06T07:51:19.962Z,21.10
2023-11-06T07:53:49.281Z,21.35
2023-11-06T07:56:20.193Z,20.65
2023-11-06T07:58:50.892Z,21.42
2023-11-06T08:01:20.097Z,14.40
2023-11-06T08:03:49.654Z,13.35
2023-11-06T08:06:18.955Z,20.38
2023-11-06T08:08:48.494Z,19.27
2023-11-06T08:11:19.801Z,15.45
2023-11-06T08:13:50.463Z,17.92
2023-11-06T08:16:20.105Z,13.25
2023-11-06T08:18:49.494Z,12.32
2023-11-06T08:21:18.905Z,25.63
2023-11-06T08:23:48.093Z,14.05
2023-11-06T08:26:17.260Z,20.65
2023-11-06T08:28:46.428Z,20.58
2023-11-06T08:31:19.024Z,15.07
2023-11-06T08:33:48.419Z,10.30
2023-11-06T08:36:17.834Z,20.08
2023-11-06T08:38:47.005Z,10.93
2023-11-06T08:41:16.145Z,26.85
2023-11-06T08:43:45.292Z,9.55
2023-11-06T08:46:14.441Z,15.50
2023-11-06T08:48:45.521Z,15.60
2023-11-06T08:51:14.913Z,14.43
2023-11-06T08:53:44.262Z,8.27
2023-11-06T08:56:13.450Z,13.45
2023-11-06T08:58:42.608Z,11.95
2023-11-06T09:01:14.065Z,12.27
2023-11-06T09:06:14.903Z,11.32
2023-11-06T09:08:44.253Z,11.00
2023-11-06T09:11:13.558Z,9.48
2023-11-06T09:13:43.090Z,11.32
2023-11-06T09:16:12.423Z,7.32
2023-11-06T09:18:41.763Z,11.88
2023-11-06T09:21:14.938Z,9.63
2023-11-06T09:23:44.875Z,9.52
2023-11-06T09:26:14.444Z,12.25
2023-11-06T09:28:43.658Z,11.57
2023-11-06T09:31:12.896Z,12.85
2023-11-06T09:33:42.506Z,13.30
2023-11-06T09:36:13.365Z,13.60
2023-11-06T09:38:42.575Z,11.77
2023-11-06T09:41:13.008Z,9.50
2023-11-06T09:43:43.140Z,14.13
2023-11-06T09:46:14.996Z,9.52
2023-11-06T09:48:45.025Z,9.70
2023-11-06T09:51:18.184Z,8.35
2023-11-06T09:53:48.486Z,10.50
2023-11-06T09:56:18.183Z,10.43
2023-11-06T09:58:47.684Z,8.25
2023-11-06T10:01:16.760Z,12.52
2023-11-06T10:03:46.050Z,7.32
2023-11-06T10:06:16.828Z,13.00
2023-11-06T10:08:46.384Z,8.02
2023-11-06T10:11:24.809Z,7.50
2023-11-06T10:13:57.220Z,8.88
2023-11-06T10:16:27.721Z,9.13
2023-11-06T10:19:14.022Z,14.60
2023-11-06T10:21:45.173Z,9.73
2023-11-06T10:24:15.445Z,9.75
2023-11-06T10:26:44.807Z,10.98
2023-11-06T10:29:15.658Z,13.88
2023-11-06T10:31:46.865Z,15.48
2023-11-06T10:34:34.688Z,11.63
2023-11-06T10:37:12.178Z,12.77
2023-11-06T10:39:42.637Z,14.52
2023-11-06T10:42:12.525Z,9.70
2023-11-06T10:44:41.760Z,11.15
2023-11-06T10:47:12.332Z,16.70
2023-11-06T10:49:49.163Z,15.07
2023-11-06T10:52:22.208Z,16.88
2023-11-06T10:54:55.603Z,13.02
2023-11-06T10:57:26.344Z,16.05
2023-11-06T10:59:57.941Z,8.02
2023-11-06T11:02:45.840Z,13.35
2023-11-06T11:05:19.160Z,10.77
2023-11-06T11:07:49.690Z,18.80
2023-11-06T11:10:23.125Z,14.35
2023-11-06T11:12:54.155Z,14.52
2023-11-06T11:15:27.613Z,11.57
2023-11-06T11:18:01.626Z,9.10
2023-11-06T11:20:55.785Z,11.75
2023-11-06T11:23:42.625Z,11.43
2023-11-06T11:26:13.366Z,8.20
2023-11-06T11:28:59.210Z,10.32
2023-11-06T11:31:36.688Z,14.27
2023-11-06T11:34:08.307Z,13.02
2023-11-06T11:36:39.789Z,16.10
2023-11-06T11:39:17.479Z,13.32
2023-11-06T11:42:24.928Z,10.85
2023-11-06T11:44:54.913Z,6.53
2023-11-06T11:47:23.223Z,9.52
2023-11-06T11:49:53.346Z,10.40
2023-11-06T11:52:47.527Z,10.95
2023-11-06T11:55:36.335Z,10.68
2023-11-06T11:58:08.420Z,7.63
2023-11-06T12:00:38.735Z,6.95
2023-11-06T12:03:10.063Z,10.18
2023-11-06T12:05:40.847Z,11.20
2023-11-06T12:08:18.662Z,7.97
2023-11-06T12:10:51.327Z,7.80
2023-11-06T12:13:23.836Z,10.27
2023-11-06T12:15:54.997Z,12.80
2023-11-06T12:18:25.426Z,11.25
2023-11-06T12:20:59.193Z,11.52
2023-11-06T12:23:33.086Z,11.02
2023-11-06T12:26:12.095Z,11.20
2023-11-06T12:28:46.448Z,10.45
2023-11-06T12:31:16.152Z,12.70
2023-11-06T12:33:45.850Z,11.85
2023-11-06T12:36:28.160Z,8.70
2023-11-06T12:38:57.439Z,13.18
2023-11-06T12:41:31.667Z,12.68
2023-11-06T12:44:04.248Z,11.85
2023-11-06T12:49:50.197Z,12.95
2023-11-06T12:52:20.363Z,9.02
2023-11-06T12:54:51.433Z,9.88
2023-11-06T12:57:21.996Z,12.50
2023-11-06T12:59:52.065Z,10.85
2023-11-06T13:02:21.890Z,15.32
2023-11-06T13:04:51.006Z,11.13
2023-11-06T13:07:20.158Z,8.93
2023-11-06T13:09:49.256Z,10.98
2023-11-06T13:12:18.460Z,10.07
2023-11-06T13:14:49.655Z,11.20
2023-11-06T13:17:19.992Z,11.52
2023-11-06T13:19:49.854Z,10.65
2023-11-06T13:22:19.785Z,7.47
2023-11-06T13:24:49.118Z,6.45
2023-11-06T13:27:19.316Z,8.93
2023-11-06T13:29:49.946Z,7.95
2023-11-06T13:32:19.217Z,8.52
2023-11-06T13:34:49.810Z,13.93
2023-11-06T13:37:20.121Z,12.18
2023-11-06T13:39:50.821Z,23.55
2023-11-06T13:42:21.254Z,14.25
2023-11-06T13:44:54.370Z,10.85
2023-11-06T13:47:23.576Z,7.55
2023-11-06T13:49:52.735Z,8.27
2023-11-06T13:52:28.596Z,4.57
2023-11-06T13:54:57.826Z,7.57
2023-11-06T13:57:27.347Z,9.52
2023-11-06T13:59:58.168Z,6.97
2023-11-06T14:02:27.812Z,5.60
2023-11-06T14:04:59.417Z,9.57
2023-11-06T14:07:28.636Z,11.63
2023-11-06T14:09:57.764Z,7.38
2023-11-06T14:12:26.853Z,6.10
2023-11-06T14:14:57.593Z,8.35
2023-11-06T14:17:29.228Z,6.93
2023-11-06T14:19:59.083Z,8.40
2023-11-06T14:22:29.328Z,8.50
2023-11-06T14:24:58.639Z,4.20
2023-11-06T14:27:29.454Z,5.15
2023-11-06T14:29:59.941Z,4.45
2023-11-06T14:32:29.443Z,5.55
2023-11-06T14:34:59.902Z,5.88
2023-11-06T14:37:32.117Z,5.63
2023-11-06T14:40:01.376Z,8.23
2023-11-06T14:42:30.604Z,5.15
2023-11-06T14:45:01.109Z,8.63
2023-11-06T14:47:30.354Z,4.45
2023-11-06T14:50:05.171Z,5.75
2023-11-06T14:52:34.333Z,6.65
2023-11-06T14:55:04.140Z,4.60
2023-11-06T14:57:33.333Z,8.43
2023-11-06T15:00:05.186Z,5.93
2023-11-06T15:02:34.333Z,5.60
2023-11-06T15:05:05.631Z,12.93
2023-11-06T15:07:35.367Z,5.60
2023-11-06T15:10:05.689Z,6.82
2023-11-06T15:12:34.925Z,5.47
2023-11-06T15:15:08.745Z,8.20
2023-11-06T15:17:39.131Z,7.68
2023-11-06T15:20:09.527Z,6.35
2023-11-06T15:22:38.805Z,6.10
2023-11-06T15:25:12.936Z,8.13
2023-11-06T15:27:42.245Z,6.53
2023-11-06T15:30:14.462Z,7.07
2023-11-06T15:32:45.560Z,6.97
2023-11-06T15:35:15.486Z,6.78
2023-11-06T15:37:45.586Z,5.78
2023-11-06T15:40:16.913Z,12.07
2023-11-06T15:42:46.516Z,7.18
2023-11-06T15:45:20.972Z,7.75
2023-11-06T15:47:51.936Z,8.68
2023-11-06T15:50:21.601Z,11.35
2023-11-06T15:52:50.901Z,8.27
2023-11-06T15:55:21.964Z,9.05
2023-11-06T15:57:51.204Z,8.63
2023-11-06T16:00:23.069Z,9.02
2023-11-06T16:02:52.273Z,4.05
2023-11-06T16:05:22.297Z,5.75
2023-11-06T16:07:51.585Z,6.93
2023-11-06T16:10:20.780Z,9.40
2023-11-06T16:12:50.417Z,5.47
2023-11-06T16:15:21.441Z,5.47
2023-11-06T16:17:51.900Z,8.82
2023-11-06T16:22:53.456Z,8.95
2023-11-06T16:25:22.748Z,11.30
2023-11-06T16:27:52.502Z,14.88
2023-11-06T16:30:24.566Z,12.02
2023-11-06T16:32:54.944Z,10.23
2023-11-06T16:35:27.084Z,10.02
2023-11-06T16:37:56.592Z,7.75
2023-11-06T16:40:25.697Z,11.48
2023-11-06T16:42:54.884Z,9.13
2023-11-06T16:45:25.444Z,7.18
2023-11-06T16:47:55.624Z,12.82
2023-11-06T16:50:27.545Z,9.43
2023-11-06T16:52:56.758Z,11.07
2023-11-06T16:55:26.079Z,7.82
2023-11-06T16:57:55.246Z,7.00
2023-11-06T17:00:27.320Z,6.25
2023-11-06T17:02:59.405Z,5.32
2023-11-06T17:05:28.668Z,13.15
2023-11-06T17:07:57.896Z,13.23
2023-11-06T17:10:27.082Z,21.60
2023-11-06T17:12:57.105Z,12.27
2023-11-06T17:15:28.808Z,18.75
2023-11-06T17:17:57.994Z,16.50
2023-11-06T17:20:27.323Z,14.00
2023-11-06T17:22:56.704Z,16.67
2023-11-06T17:25:26.114Z,11.45
2023-11-06T17:27:57.861Z,17.05
2023-11-06T17:30:28.418Z,17.30
2023-11-06T17:32:58.048Z,17.95
2023-11-06T17:35:27.774Z,11.82
2023-11-06T17:37:57.135Z,15.43
2023-11-06T17:40:26.308Z,13.27
2023-11-06T17:42:55.588Z,12.82
2023-11-06T17:45:24.778Z,8.02
2023-11-06T17:47:56.908Z,17.38
2023-11-06T17:50:26.233Z,17.92
2023-11-06T17:52:55.509Z,17.50
2023-11-06T17:55:24.887Z,10.93
2023-11-06T17:57:54.363Z,19.33
2023-11-06T18:00:24.236Z,13.02
2023-11-06T18:02:55.595Z,14.25
2023-11-06T18:05:24.972Z,16.08
2023-11-06T18:07:54.194Z,18.63
2023-11-06T18:10:23.647Z,19.75
2023-11-06T18:12:52.765Z,13.38
2023-11-06T18:15:21.915Z,14.95
2023-11-06T18:17:51.151Z,16.17
2023-11-06T18:20:22.162Z,18.27
2023-11-06T18:22:51.504Z,18.67
2023-11-06T18:25:21.233Z,11.48
2023-11-06T18:27:51.221Z,11.10
2023-11-06T18:30:20.486Z,9.93
2023-11-06T18:32:50.377Z,14.02
2023-11-06T18:35:21.767Z,14.45
2023-11-06T18:37:51.265Z,12.50
2023-11-06T18:40:20.504Z,14.85
2023-11-06T18:42:49.803Z,17.77
2023-11-06T18:45:19.022Z,16.33
2023-11-06T18:47:48.277Z,12.93
2023-11-06T18:50:17.591Z,11.77
2023-11-06T18:52:49.217Z,9.95
2023-11-06T18:55:19.864Z,18.05
2023-11-06T18:57:51.030Z,17.35
2023-11-06T19:00:22.151Z,15.20
2023-11-06T19:02:51.471Z,24.38
2023-11-06T19:05:21.328Z,18.00
2023-11-06T19:07:54.280Z,20.10
2023-11-06T19:10:23.580Z,14.93
2023-11-06T19:12:53.780Z,18.33
2023-11-06T19:15:23.448Z,15.45
2023-11-06T19:17:53.175Z,15.68
2023-11-06T19:20:23.231Z,19.58
2023-11-06T19:22:53.830Z,15.27
2023-11-06T19:25:23.216Z,13.85
2023-11-06T19:27:52.376Z,9.98
2023-11-06T19:30:21.981Z,12.73
2023-11-06T19:32:51.457Z,11.73
2023-11-06T19:35:20.951Z,16.85
2023-11-06T19:37:50.266Z,15.95
2023-11-06T19:40:21.155Z,13.98
2023-11-06T19:42:51.891Z,19.48
2023-11-06T19:45:21.330Z,14.52
2023-11-06T19:47:50.565Z,15.18
2023-11-06T19:50:20.155Z,15.07
2023-11-06T19:52:50.841Z,12.95
2023-11-06T19:55:22.447Z,16.17
2023-11-06T19:57:52.356Z,14.15
2023-11-06T20:00:22.152Z,10.48
2023-11-06T20:02:52.735Z,13.40
2023-11-06T20:05:22.296Z,15.20
2023-11-06T20:07:51.518Z,15.82
2023-11-06T20:10:22.594Z,16.73
2023-11-06T20:12:54.161Z,17.50
2023-11-06T20:15:24.259Z,13.00
2023-11-06T20:17:54.835Z,10.68
2023-11-06T20:20:24.105Z,15.80
2023-11-06T20:22:54.025Z,10.88
2023-11-06T20:25:24.719Z,11.75
2023-11-06T20:27:54.137Z,14.15
2023-11-06T20:30:23.281Z,18.90
2023-11-06T20:32:52.570Z,19.02
2023-11-06T20:35:21.867Z,21.25
2023-11-06T20:37:51.038Z,15.70
2023-11-06T20:40:20.324Z,17.23
2023-11-06T20:42:51.160Z,19.23
2023-11-06T20:45:20.696Z,12.48
2023-11-06T20:47:49.998Z,33.22
2023-11-06T20:50:19.305Z,24.98
2023-11-06T20:52:49.115Z,19.58
2023-11-06T20:55:18.477Z,27.35
2023-11-06T20:57:47.881Z,16.17
2023-11-06T21:00:20.425Z,18.88
2023-11-06T21:02:50.356Z,18.55
2023-11-06T21:05:21.968Z,18.75
2023-11-06T21:07:51.720Z,16.95
2023-11-06T21:10:20.920Z,20.23
2023-11-06T21:12:50.317Z,14.30
2023-11-06T21:15:21.145Z,30.67
2023-11-06T21:17:50.486Z,19.98
2023-11-06T21:20:20.015Z,22.85
2023-11-06T21:22:49.215Z,23.33
2023-11-06T21:25:20.344Z,11.80
2023-11-06T21:27:49.560Z,19.98
2023-11-06T21:30:21.432Z,27.83
2023-11-06T21:32:52.247Z,18.52
2023-11-06T21:35:21.669Z,18.58
2023-11-06T21:37:52.255Z,13.80
2023-11-06T21:40:21.538Z,13.70
2023-11-06T21:42:50.760Z,17.73
2023-11-06T21:45:21.647Z,20.20
2023-11-06T21:47:50.836Z,17.05
2023-11-06T21:50:20.096Z,15.57
2023-11-06T21:52:49.217Z,15.32
2023-11-06T21:55:19.447Z,13.70
2023-11-06T21:57:50.328Z,16.75
2023-11-06T22:00:21.592Z,16.05
2023-11-06T22:02:50.883Z,13.02
2023-11-06T22:05:22.171Z,15.75
2023-11-06T22:07:51.709Z,13.00
2023-11-06T22:10:25.426Z,10.48
2023-11-06T22:12:55.898Z,12.65
2023-11-06T22:15:26.665Z,13.57
2023-11-06T22:18:01.450Z,14.98
2023-11-06T22:20:31.657Z,10.63
2023-11-06T22:23:02.315Z,10.43
2023-11-06T22:25:31.647Z,20.15
2023-11-06T22:28:00.934Z,13.68
2023-11-06T22:30:31.516Z,17.00
2023-11-06T22:33:00.817Z,16.95
2023-11-06T22:35:30.587Z,17.30
2023-11-06T22:37:59.968Z,15.68
2023-11-06T22:40:29.341Z,13.25
2023-11-06T22:42:58.522Z,13.95
2023-11-06T22:45:27.802Z,11.13
2023-11-06T22:47:58.565Z,13.85
2023-11-06T22:50:27.862Z,11.68
2023-11-06T22:52:57.049Z,12.77
2023-11-06T22:55:26.334Z,18.17
2023-11-06T22:57:55.733Z,19.25
2023-11-06T23:00:28.750Z,17.50
2023-11-06T23:03:00.095Z,13.52
2023-11-06T23:05:29.452Z,14.70
2023-11-06T23:07:59.015Z,16.90
2023-11-06T23:10:28.317Z,9.82
2023-11-06T23:12:57.511Z,11.75
2023-11-06T23:15:26.945Z,10.52
2023-11-06T23:17:56.385Z,16.00
2023-11-06T23:20:27.518Z,8.07
2023-11-06T23:22:57.484Z,14.98
2023-11-06T23:25:33.555Z,13.05
2023-11-06T23:28:09.784Z,12.30
2023-11-06T23:30:39.675Z,15.75
2023-11-06T23:33:09.379Z,12.82
2023-11-06T23:35:40.307Z,12.88
2023-11-06T23:38:09.891Z,9.70
2023-11-06T23:40:39.089Z,16.88
2023-11-06T23:43:08.673Z,14.43
2023-11-06T23:45:37.853Z,10.10
2023-11-06T23:48:08.899Z,12.63
2023-11-06T23:50:39.835Z,15.15
2023-11-06T23:53:09.392Z,19.00
2023-11-06T23:55:38.587Z,15.95
2023-11-06T23:58:07.813Z,17.20
